Millennium Star — WDA2184 — position and weather

sailwx.info

Track history (hours):
 
Tides and Currents Weather Stations Pressure Air Temp Water Temp Dewpoint Dewpoint Depression Visibility Wind Speed Wind Dir Waves Ship Positions

Millennium Star

Owner: Harley Marine Services, INC, SEATTLE, WA. More information available from US FCC via Universal Licensing System and Coast Guard Vessel Documentation Center.

Last reported at 2017-Dec-04 10:28 UTC. Time now 2017-Dec-12 15:51 UTC.
Position N 47°35' W 122°21'.
Warning: this ship's position is 8 days out of date.

Length 30 m; draft 4 m.

Type: Tug. MMSI: 366971980.

Date/timePositionNaut miles runAvg speedWind from/ knotsBaromVisibWave heightAir tempDewpointWater temp
2017-Dec-04 10:28N 47°35' W 122°21'0 0.9
2017-Dec-04 09:59N 47°34' W 122°21'0 0.0
2017-Dec-04 09:29N 47°34' W 122°21'0 0.0
2017-Dec-04 08:59N 47°34' W 122°21'0 0.0
2017-Dec-04 08:29N 47°34' W 122°21'0 0.0
2017-Dec-04 08:00N 47°34' W 122°21'0 0.0
2017-Dec-04 07:29N 47°34' W 122°21'0 0.0
2017-Dec-04 07:00N 47°34' W 122°21'0 0.0
2017-Dec-04 06:29N 47°34' W 122°21'0 0.0
2017-Dec-04 06:00N 47°34' W 122°21'0 0.0
2017-Dec-04 05:29N 47°34' W 122°21'0 0.0
2017-Dec-04 05:00N 47°34' W 122°21'0 0.0
2017-Dec-04 04:30N 47°34' W 122°21'0 0.0
2017-Dec-04 04:00N 47°34' W 122°21'0 0.0
2017-Dec-04 03:30N 47°34' W 122°21'0 0.0
2017-Dec-04 03:00N 47°34' W 122°21'0 0.0
2017-Dec-04 02:30N 47°34' W 122°21'0 0.0
2017-Dec-04 01:59N 47°34' W 122°21'0 0.0
2017-Dec-04 01:30N 47°34' W 122°21'3 5.5
2017-Dec-04 01:00N 47°36' W 122°24'510.1
2017-Dec-04 00:30N 47°31' W 122°25'510.8
2017-Dec-04 00:00N 47°25' W 122°23'5 9.1
2017-Dec-03 23:30N 47°21' W 122°24'4 1.0
2017-Dec-03 19:48N 47°17' W 122°25'0 0.4
2017-Dec-03 19:00N 47°17' W 122°25'2 4.7
2017-Dec-03 18:31N 47°18' W 122°28'4 8.4
2017-Dec-03 18:00N 47°22' W 122°24'3 6.8
2017-Dec-03 17:31N 47°25' W 122°24'4 8.7
2017-Dec-03 17:01N 47°29' W 122°26'4 8.8
2017-Dec-03 16:31N 47°34' W 122°27'4 7.8
2017-Dec-03 16:01N 47°36' W 122°22'1 1.1
2017-Dec-03 15:28N 47°36' W 122°21'1 2.3
2017-Dec-03 15:00N 47°34' W 122°21'0 0.0
2017-Dec-03 14:30N 47°34' W 122°21'0 0.0
2017-Dec-03 14:00N 47°34' W 122°21'0 0.0
2017-Dec-03 13:30N 47°34' W 122°21'0 0.0
2017-Dec-03 13:00N 47°34' W 122°21'0 0.0
2017-Dec-03 12:30N 47°34' W 122°21'0 0.0
2017-Dec-03 12:00N 47°34' W 122°21'0 0.0
2017-Dec-03 11:30N 47°34' W 122°21'0 0.0
2017-Dec-03 10:57N 47°34' W 122°21'0 0.0
2017-Dec-03 10:30N 47°34' W 122°21'0 0.0
2017-Dec-03 10:00N 47°34' W 122°21'0 0.0
2017-Dec-03 09:30N 47°34' W 122°21'0 0.0
2017-Dec-03 09:00N 47°34' W 122°21'0 0.0
2017-Dec-03 08:30N 47°34' W 122°21'0 0.0
2017-Dec-03 08:00N 47°34' W 122°21'0 0.0
2017-Dec-03 07:29N 47°34' W 122°21'0 0.0
2017-Dec-03 07:00N 47°34' W 122°21'0 0.0
2017-Dec-03 06:30N 47°34' W 122°21'0 0.0
2017-Dec-03 06:00N 47°34' W 122°21'0 0.0
2017-Dec-03 05:30N 47°34' W 122°21'0 0.0
2017-Dec-03 05:00N 47°34' W 122°21'0 0.0
2017-Dec-03 04:30N 47°34' W 122°21'0 0.0
2017-Dec-03 04:00N 47°34' W 122°21'0 0.0
2017-Dec-03 03:30N 47°34' W 122°21'0 0.1
2017-Dec-03 03:00N 47°34' W 122°21'0 0.0
2017-Dec-03 02:30N 47°34' W 122°21'0 0.0
2017-Dec-03 01:57N 47°34' W 122°21'0 0.0
2017-Dec-03 01:27N 47°34' W 122°21'0 0.1
2017-Dec-03 00:57N 47°34' W 122°21'0 0.0
2017-Dec-03 00:30N 47°34' W 122°21'0 0.0
2017-Dec-03 00:01N 47°34' W 122°21'0 0.1
2017-Dec-02 23:30N 47°34' W 122°21'0 0.0
2017-Dec-02 23:00N 47°34' W 122°21'0 0.0
2017-Dec-02 22:30N 47°34' W 122°21'0 0.1
2017-Dec-02 21:57N 47°34' W 122°21'0 0.0
2017-Dec-02 21:30N 47°34' W 122°21'0 0.0
2017-Dec-02 21:00N 47°34' W 122°21'0 0.1
2017-Dec-02 20:30N 47°34' W 122°21'0 0.0
2017-Dec-02 20:00N 47°34' W 122°21'0 0.9
2017-Dec-02 19:30N 47°35' W 122°21'0 0.4
2017-Dec-02 19:00N 47°35' W 122°21'2 3.5
2017-Dec-02 18:30N 47°37' W 122°22'2 4.4
2017-Dec-02 17:59N 47°34' W 122°21'0 0.0
2017-Dec-02 17:29N 47°34' W 122°21'0 0.0
2017-Dec-02 16:59N 47°34' W 122°21'0 0.0
2017-Dec-02 16:30N 47°34' W 122°21'0 0.0
2017-Dec-02 15:59N 47°34' W 122°21'0 0.0
2017-Dec-02 15:29N 47°34' W 122°21'0 0.0
2017-Dec-02 14:58N 47°34' W 122°21'0 0.0
2017-Dec-02 14:29N 47°34' W 122°21'0 0.0
2017-Dec-02 13:58N 47°34' W 122°21'0 0.0
2017-Dec-02 13:29N 47°34' W 122°21'0 0.0
2017-Dec-02 12:59N 47°34' W 122°21'0 0.0
2017-Dec-02 12:30N 47°34' W 122°21'0 0.0
2017-Dec-02 11:56N 47°34' W 122°21'0 0.0
2017-Dec-02 11:30N 47°34' W 122°21'0 0.0
2017-Dec-02 10:59N 47°34' W 122°21'0 0.0
2017-Dec-02 10:29N 47°34' W 122°21'0 0.0
2017-Dec-02 09:59N 47°34' W 122°21'0 0.0
2017-Dec-02 09:28N 47°34' W 122°21'0 0.0
2017-Dec-02 08:59N 47°34' W 122°21'0 0.0
2017-Dec-02 08:29N 47°34' W 122°21'0 0.0
2017-Dec-02 07:59N 47°34' W 122°21'0 0.0
2017-Dec-02 07:29N 47°34' W 122°21'0 0.0
2017-Dec-02 06:59N 47°34' W 122°21'0 0.0
2017-Dec-02 06:29N 47°34' W 122°21'0 0.0
2017-Dec-02 05:59N 47°34' W 122°21'0 0.0
2017-Dec-02 05:28N 47°34' W 122°21'0 0.0
2017-Dec-02 04:59N 47°34' W 122°21'0 0.0
2017-Dec-02 04:28N 47°34' W 122°21'0 0.0
2017-Dec-02 03:59N 47°34' W 122°21'0 0.0
2017-Dec-02 03:29N 47°34' W 122°21'0 0.0
2017-Dec-02 02:59N 47°34' W 122°21'0 0.0
2017-Dec-02 02:25N 47°34' W 122°21'0 0.0
2017-Dec-02 01:56N 47°34' W 122°21'1 2.5
2017-Dec-02 01:30N 47°35' W 122°21'0 0.2
2017-Dec-02 00:59N 47°35' W 122°21'1 2.0
2017-Dec-02 00:30N 47°34' W 122°21'0 0.0
2017-Dec-02 00:00N 47°34' W 122°21'0 0.0
2017-Dec-01 23:30N 47°34' W 122°21'0 0.0
2017-Dec-01 23:00N 47°34' W 122°21'0 0.0
2017-Dec-01 22:30N 47°34' W 122°21'0 0.0
2017-Dec-01 21:59N 47°34' W 122°21'0 0.0
2017-Dec-01 21:30N 47°34' W 122°21'0 0.0
2017-Dec-01 20:59N 47°34' W 122°21'0 0.0
2017-Dec-01 20:29N 47°34' W 122°21'0 0.0
2017-Dec-01 20:00N 47°34' W 122°21'0 0.0
2017-Dec-01 19:30N 47°34' W 122°21'0 0.0
2017-Dec-01 19:00N 47°34' W 122°21'0 0.0
2017-Dec-01 18:30N 47°34' W 122°21'0 0.0
2017-Dec-01 18:00N 47°34' W 122°21'0 0.0
2017-Dec-01 17:30N 47°34' W 122°21'0 0.0
2017-Dec-01 16:59N 47°34' W 122°21'0 0.0
2017-Dec-01 16:30N 47°34' W 122°21'0 0.0
2017-Dec-01 16:00N 47°34' W 122°21'0 0.0
2017-Dec-01 15:30N 47°34' W 122°21'0 0.0
2017-Dec-01 14:59N 47°34' W 122°21'3 6.0
2017-Dec-01 14:31N 47°36' W 122°25'611.0
2017-Dec-01 14:00N 47°30' W 122°25'611.8
2017-Dec-01 13:30N 47°24' W 122°22'510.5
2017-Dec-01 13:00N 47°20' W 122°25'3 5.3
2017-Dec-01 12:25N 47°17' W 122°25'1 3.5
2017-Dec-01 12:00N 47°16' W 122°23'0 0.3
2017-Dec-01 11:28N 47°16' W 122°23'2 0.2
2017-Dec-01 00:57N 47°18' W 122°25'3 7.2
2017-Dec-01 00:30N 47°21' W 122°25'5 9.2
2017-Dec-01 00:00N 47°25' W 122°23'510.7
2017-Nov-30 23:30N 47°30' W 122°26'5 9.6
2017-Nov-30 23:00N 47°35' W 122°25'3 5.8
2017-Nov-30 22:28N 47°34' W 122°21'0 0.0
2017-Nov-30 21:58N 47°34' W 122°21'0 0.0
2017-Nov-30 21:28N 47°34' W 122°21'0 0.1
2017-Nov-30 20:59N 47°34' W 122°21'0 0.1
2017-Nov-30 20:28N 47°34' W 122°21'0 0.0
2017-Nov-30 19:58N 47°34' W 122°21'0 0.2
2017-Nov-30 19:25N 47°34' W 122°21'0 0.0
2017-Nov-30 18:59N 47°34' W 122°21'1 2.1
2017-Nov-30 18:30N 47°35' W 122°21'1 1.6
2017-Nov-30 18:00N 47°36' W 122°22'3 5.6
2017-Nov-30 17:30N 47°35' W 122°26'4 8.9
2017-Nov-30 17:00N 47°31' W 122°25'4 8.8
2017-Nov-30 16:30N 47°26' W 122°23'4 8.0
2017-Nov-30 16:00N 47°22' W 122°22'4 9.0
2017-Nov-30 15:30N 47°19' W 122°26'2 4.8
2017-Nov-30 15:00N 47°17' W 122°26'3 4.3
2017-Nov-30 14:23N 47°15' W 122°23'0 0.0
2017-Nov-30 13:44N 47°15' W 122°23'0 0.0
2017-Nov-30 13:29N 47°15' W 122°23'0 0.0
2017-Nov-30 12:59N 47°15' W 122°23'0 0.0
2017-Nov-30 12:05N 47°15' W 122°23'0 0.0
2017-Nov-30 11:47N 47°15' W 122°23'0 0.0
2017-Nov-30 11:29N 47°15' W 122°23'0 0.0
2017-Nov-30 10:59N 47°15' W 122°23'0 0.0
2017-Nov-30 08:47N 47°15' W 122°23'0 0.0
2017-Nov-30 08:20N 47°15' W 122°23'0 0.0
2017-Nov-30 07:59N 47°15' W 122°23'0 0.0
2017-Nov-30 07:29N 47°15' W 122°23'0 0.0
2017-Nov-30 06:59N 47°15' W 122°23'0 0.0
2017-Nov-30 06:29N 47°15' W 122°23'0 0.1
2017-Nov-30 05:59N 47°15' W 122°23'0 0.0
2017-Nov-30 04:08N 47°15' W 122°23'0 0.0
2017-Nov-30 03:59N 47°15' W 122°23'0 0.5
2017-Nov-30 03:11N 47°16' W 122°23'1 4.3
2017-Nov-30 02:50N 47°17' W 122°25'1 0.2
2017-Nov-30 00:15N 47°16' W 122°25'0 0.0
2017-Nov-29 23:51N 47°16' W 122°25'0 0.0
2017-Nov-29 23:27N 47°16' W 122°25'0 0.0
2017-Nov-29 21:39N 47°16' W 122°25'0 0.0
2017-Nov-29 18:23N 47°16' W 122°25'0 0.0
2017-Nov-29 17:44N 47°16' W 122°25'0 0.0
2017-Nov-29 17:26N 47°16' W 122°25'0 0.0
2017-Nov-29 16:38N 47°16' W 122°25'0 0.0
2017-Nov-29 16:20N 47°16' W 122°25'0 0.0
2017-Nov-29 13:32N 47°16' W 122°25'0 0.0
2017-Nov-29 13:17N 47°16' W 122°25'0 0.0
2017-Nov-29 12:59N 47°16' W 122°25'0 0.0
2017-Nov-29 12:23N 47°16' W 122°25'0 0.0
2017-Nov-29 11:47N 47°16' W 122°25'0 0.0
2017-Nov-29 11:29N 47°16' W 122°25'0 0.0
2017-Nov-29 10:59N 47°16' W 122°25'0 0.0
2017-Nov-29 10:29N 47°16' W 122°25'0 0.0
2017-Nov-29 09:59N 47°16' W 122°25'0 0.0
2017-Nov-29 09:29N 47°16' W 122°25'0 0.0
2017-Nov-29 08:26N 47°16' W 122°25'0 0.0
2017-Nov-29 06:53N 47°16' W 122°25'0 0.0
2017-Nov-29 06:17N 47°16' W 122°25'0 0.0
2017-Nov-29 05:53N 47°16' W 122°25'0 0.0
2017-Nov-29 05:08N 47°16' W 122°25'1 3.9
2017-Nov-29 05:00N 47°17' W 122°25'1 1.2
2017-Nov-29 04:20N 47°16' W 122°24'1 4.0
2017-Nov-29 04:00N 47°17' W 122°26'1 1.0
2017-Nov-29 02:54N 47°16' W 122°25'1 1.6
2017-Nov-29 02:30N 47°17' W 122°25'0 0.5
2017-Nov-29 01:59N 47°17' W 122°26'0 0.2
2017-Nov-29 01:29N 47°17' W 122°25'0 0.1
2017-Nov-29 00:59N 47°17' W 122°25'0 0.6
2017-Nov-29 00:30N 47°17' W 122°25'1 2.7
2017-Nov-29 00:00N 47°17' W 122°23'0 0.0
2017-Nov-28 23:30N 47°17' W 122°23'0 0.0
2017-Nov-28 22:57N 47°17' W 122°23'0 0.0
2017-Nov-28 21:48N 47°17' W 122°23'0 0.0
2017-Nov-28 21:21N 47°17' W 122°23'0 0.0
2017-Nov-28 21:00N 47°17' W 122°23'0 0.0
2017-Nov-28 20:30N 47°17' W 122°23'0 0.0
2017-Nov-28 20:00N 47°17' W 122°23'0 0.0
2017-Nov-28 19:24N 47°17' W 122°23'0 0.0
2017-Nov-28 19:00N 47°17' W 122°23'0 0.0
2017-Nov-28 18:24N 47°17' W 122°23'0 0.0
2017-Nov-28 17:51N 47°17' W 122°23'0 0.0
2017-Nov-28 17:29N 47°17' W 122°23'0 0.0
2017-Nov-28 16:59N 47°17' W 122°23'0 0.0
2017-Nov-28 16:29N 47°17' W 122°23'0 0.0
2017-Nov-28 15:59N 47°17' W 122°23'0 0.0
2017-Nov-28 14:59N 47°17' W 122°23'0 0.0
2017-Nov-28 14:23N 47°17' W 122°23'0 0.0
2017-Nov-28 13:59N 47°17' W 122°23'0 0.0
2017-Nov-28 13:29N 47°17' W 122°23'1 2.6
2017-Nov-28 13:00N 47°17' W 122°25'3 6.2
2017-Nov-28 12:30N 47°19' W 122°29'4 7.6
2017-Nov-28 12:00N 47°22' W 122°32'4 7.9
2017-Nov-28 11:30N 47°26' W 122°32'4 7.4
2017-Nov-28 11:00N 47°29' W 122°30'4 7.7
2017-Nov-28 10:30N 47°33' W 122°28'4 7.8
2017-Nov-28 10:00N 47°36' W 122°24'2 4.9
2017-Nov-28 09:31N 47°35' W 122°21'1 2.0
2017-Nov-28 09:00N 47°34' W 122°21'0 0.0
2017-Nov-28 08:29N 47°34' W 122°21'0 0.0
2017-Nov-28 07:59N 47°34' W 122°21'0 0.0
2017-Nov-28 07:29N 47°34' W 122°21'0 0.0
2017-Nov-28 06:59N 47°34' W 122°21'0 0.0
2017-Nov-28 06:29N 47°34' W 122°21'0 0.0
2017-Nov-28 05:59N 47°34' W 122°21'0 0.0
2017-Nov-28 05:29N 47°34' W 122°21'0 0.0
2017-Nov-28 04:29N 47°34' W 122°21'0 0.0
2017-Nov-28 03:59N 47°34' W 122°21'0 0.0
2017-Nov-28 03:29N 47°34' W 122°21'0 0.0
2017-Nov-28 02:57N 47°34' W 122°21'0 0.0
2017-Nov-28 02:29N 47°34' W 122°21'0 0.0
2017-Nov-28 01:59N 47°34' W 122°21'0 0.0
2017-Nov-28 01:29N 47°34' W 122°21'0 0.0
2017-Nov-28 00:59N 47°34' W 122°21'0 0.0
2017-Nov-28 00:29N 47°34' W 122°21'0 0.0
2017-Nov-27 23:59N 47°34' W 122°21'0 0.0
2017-Nov-27 23:26N 47°34' W 122°21'0 0.0
2017-Nov-27 22:59N 47°34' W 122°21'0 0.0
2017-Nov-27 22:29N 47°34' W 122°21'0 0.0
2017-Nov-27 21:56N 47°34' W 122°21'0 0.0
2017-Nov-27 21:30N 47°34' W 122°21'0 0.0
2017-Nov-27 20:59N 47°34' W 122°21'0 0.0
2017-Nov-27 20:29N 47°34' W 122°21'0 0.0
2017-Nov-27 19:59N 47°34' W 122°21'0 0.0
2017-Nov-27 19:30N 47°34' W 122°21'0 0.0
2017-Nov-27 19:00N 47°34' W 122°21'0 0.0
2017-Nov-27 18:30N 47°34' W 122°21'0 0.1
2017-Nov-27 17:59N 47°34' W 122°21'0 0.0
2017-Nov-27 17:29N 47°34' W 122°21'1 1.8
2017-Nov-27 16:57N 47°35' W 122°21'1 1.8
2017-Nov-27 16:24N 47°34' W 122°21'0 0.0
2017-Nov-27 15:50N 47°34' W 122°21'0 0.0
2017-Nov-27 15:29N 47°34' W 122°21'0 0.0
2017-Nov-27 14:53N 47°34' W 122°21'0 0.0
2017-Nov-27 14:29N 47°34' W 122°21'0 0.0
2017-Nov-27 12:50N 47°34' W 122°21'0 0.0
2017-Nov-27 12:17N 47°34' W 122°21'0 0.0
2017-Nov-27 11:59N 47°34' W 122°21'0 0.0
2017-Nov-27 11:22N 47°34' W 122°21'0 0.0
2017-Nov-27 11:00N 47°34' W 122°21'0 0.0
2017-Nov-27 10:30N 47°34' W 122°21'0 0.0
2017-Nov-27 09:57N 47°34' W 122°21'0 0.0
2017-Nov-27 09:30N 47°34' W 122°21'0 0.0
2017-Nov-27 09:00N 47°34' W 122°21'0 0.0
2017-Nov-27 08:30N 47°34' W 122°21'0 0.0
2017-Nov-27 07:59N 47°34' W 122°21'0 0.0
2017-Nov-27 07:30N 47°34' W 122°21'0 0.0
2017-Nov-27 06:59N 47°34' W 122°21'0 0.0
2017-Nov-27 06:29N 47°34' W 122°21'0 0.0
2017-Nov-27 06:00N 47°34' W 122°21'0 0.0
2017-Nov-27 05:30N 47°34' W 122°21'0 0.0
2017-Nov-27 05:00N 47°34' W 122°21'0 0.0
2017-Nov-27 04:30N 47°34' W 122°21'0 0.0
2017-Nov-27 04:00N 47°34' W 122°21'0 0.0
2017-Nov-27 03:26N 47°34' W 122°21'0 0.0
2017-Nov-27 03:00N 47°34' W 122°21'0 0.0
2017-Nov-27 02:30N 47°34' W 122°21'0 0.0
2017-Nov-27 01:59N 47°34' W 122°21'0 0.0
2017-Nov-27 01:29N 47°34' W 122°21'0 0.0
2017-Nov-27 01:00N 47°34' W 122°21'0 0.0
2017-Nov-27 00:30N 47°34' W 122°21'0 0.2
2017-Nov-26 23:58N 47°34' W 122°21'0 0.2
2017-Nov-26 23:26N 47°34' W 122°21'0 0.0
2017-Nov-26 22:58N 47°34' W 122°21'1 2.3
2017-Nov-26 22:30N 47°36' W 122°21'4 7.5
2017-Nov-26 22:00N 47°38' W 122°25'3 6.8
2017-Nov-26 21:30N 47°41' W 122°27'4 7.8
2017-Nov-26 21:00N 47°45' W 122°25'2 4.5
2017-Nov-26 20:30N 47°47' W 122°24'0 0.0
2017-Nov-26 20:00N 47°47' W 122°24'0 0.0
2017-Nov-26 19:30N 47°47' W 122°24'0 0.0
2017-Nov-26 19:00N 47°47' W 122°24'0 0.0
2017-Nov-26 18:27N 47°47' W 122°24'0 0.0
2017-Nov-26 18:00N 47°47' W 122°24'0 0.0
2017-Nov-26 17:30N 47°47' W 122°24'0 0.0
2017-Nov-26 17:00N 47°47' W 122°24'0 0.0
2017-Nov-26 16:30N 47°47' W 122°24'0 0.0
2017-Nov-26 16:00N 47°47' W 122°24'0 0.0
2017-Nov-26 15:30N 47°47' W 122°24'0 0.0
2017-Nov-26 15:00N 47°47' W 122°24'0 0.0
2017-Nov-26 14:30N 47°47' W 122°24'0 0.0
2017-Nov-26 14:00N 47°47' W 122°24'0 0.0
2017-Nov-26 13:30N 47°47' W 122°24'0 0.0
2017-Nov-26 13:00N 47°47' W 122°24'0 0.0
2017-Nov-26 12:27N 47°47' W 122°24'0 0.0
2017-Nov-26 12:00N 47°47' W 122°24'0 0.0
2017-Nov-26 11:30N 47°47' W 122°24'0 0.0
2017-Nov-26 11:00N 47°47' W 122°24'0 0.0
2017-Nov-26 10:30N 47°47' W 122°24'0 0.0
2017-Nov-26 09:57N 47°47' W 122°24'0 0.0
2017-Nov-26 09:30N 47°47' W 122°24'0 0.0
2017-Nov-26 08:57N 47°47' W 122°24'0 0.0
2017-Nov-26 08:27N 47°47' W 122°24'0 0.0
2017-Nov-26 08:00N 47°47' W 122°24'0 0.0
2017-Nov-26 07:30N 47°47' W 122°24'0 0.0
2017-Nov-26 07:00N 47°47' W 122°24'0 0.0
2017-Nov-26 06:30N 47°47' W 122°24'0 0.0
2017-Nov-26 06:00N 47°47' W 122°24'0 0.0
2017-Nov-26 05:30N 47°47' W 122°24'0 0.0
2017-Nov-26 04:57N 47°47' W 122°24'0 0.0
2017-Nov-26 04:30N 47°47' W 122°24'0 0.0
2017-Nov-26 04:00N 47°47' W 122°24'1 2.4
2017-Nov-26 03:30N 47°46' W 122°25'4 7.0
2017-Nov-26 03:00N 47°42' W 122°26'3 6.6
2017-Nov-26 02:30N 47°39' W 122°27'3 6.4
2017-Nov-26 02:01N 47°37' W 122°23'3 5.8
2017-Nov-26 01:30N 47°35' W 122°21'0 0.3
2017-Nov-26 01:00N 47°34' W 122°21'1 2.1
2017-Nov-26 00:30N 47°35' W 122°21'1 1.9
2017-Nov-26 00:00N 47°34' W 122°21'0 0.0
2017-Nov-25 23:30N 47°34' W 122°21'0 0.0
2017-Nov-25 23:00N 47°34' W 122°21'0 0.0
2017-Nov-25 22:30N 47°34' W 122°21'0 0.0
2017-Nov-25 22:00N 47°34' W 122°21'0 0.0
2017-Nov-25 21:30N 47°34' W 122°21'0 0.0
2017-Nov-25 21:00N 47°34' W 122°21'0 0.0
2017-Nov-25 20:30N 47°34' W 122°21'0 0.0
2017-Nov-25 20:00N 47°34' W 122°21'0 0.0
2017-Nov-25 19:30N 47°34' W 122°21'0 0.0
2017-Nov-25 19:00N 47°34' W 122°21'0 0.2
2017-Nov-25 18:30N 47°34' W 122°21'0 0.2
2017-Nov-25 18:00N 47°34' W 122°21'1 2.2
2017-Nov-25 17:30N 47°36' W 122°21'1 2.4
2017-Nov-25 17:00N 47°36' W 122°22'3 5.8
2017-Nov-25 16:30N 47°38' W 122°26'3 6.8
2017-Nov-25 16:00N 47°41' W 122°28'4 7.2
2017-Nov-25 15:30N 47°44' W 122°27'4 7.6
2017-Nov-25 15:00N 47°48' W 122°28'4 8.0
2017-Nov-25 14:30N 47°52' W 122°29'4 7.8
2017-Nov-25 14:00N 47°56' W 122°31'5 8.7
2017-Nov-25 13:27N 47°59' W 122°37'13 8.3
2017-Nov-25 11:56N 48°10' W 122°46'9 6.7
2017-Nov-25 10:39N 48°18' W 122°47'2 7.4
2017-Nov-25 10:22N 48°21' W 122°47'3 7.3
2017-Nov-25 10:00N 48°23' W 122°46'4 8.1
2017-Nov-25 09:30N 48°27' W 122°45'4 8.1
2017-Nov-25 09:00N 48°31' W 122°42'4 7.3
2017-Nov-25 08:30N 48°32' W 122°37'2 3.3
2017-Nov-25 07:56N 48°31' W 122°34'1 1.3
2017-Nov-25 07:30N 48°30' W 122°34'0 0.0
2017-Nov-25 07:00N 48°30' W 122°34'0 0.0
2017-Nov-25 06:30N 48°30' W 122°34'0 0.0
2017-Nov-25 06:00N 48°30' W 122°34'0 0.0
2017-Nov-25 05:30N 48°30' W 122°34'0 0.0
2017-Nov-25 05:00N 48°30' W 122°34'0 0.0
2017-Nov-25 04:24N 48°30' W 122°34'0 0.0
2017-Nov-25 04:00N 48°30' W 122°34'0 0.0
2017-Nov-25 03:30N 48°30' W 122°34'0 0.0
2017-Nov-25 03:00N 48°30' W 122°34'0 0.0
2017-Nov-25 02:30N 48°30' W 122°34'0 0.0
2017-Nov-25 02:00N 48°30' W 122°34'0 0.0
2017-Nov-25 01:30N 48°30' W 122°34'0 0.0
2017-Nov-25 01:00N 48°30' W 122°34'0 0.0
2017-Nov-25 00:30N 48°30' W 122°34'0 0.0
2017-Nov-25 00:00N 48°30' W 122°34'0 0.0
2017-Nov-24 23:30N 48°30' W 122°34'0 0.0
2017-Nov-24 23:00N 48°30' W 122°34'0 0.0
2017-Nov-24 22:30N 48°30' W 122°34'0 0.0
2017-Nov-24 21:54N 48°30' W 122°34'0 0.0
2017-Nov-24 21:30N 48°30' W 122°34'0 0.0
2017-Nov-24 21:00N 48°30' W 122°34'0 0.0
2017-Nov-24 20:18N 48°30' W 122°34'0 0.0
2017-Nov-24 20:00N 48°30' W 122°34'0 0.0
2017-Nov-24 19:30N 48°30' W 122°34'0 0.0
2017-Nov-24 19:00N 48°30' W 122°34'0 0.0
2017-Nov-24 18:30N 48°30' W 122°34'0 0.0
2017-Nov-24 18:00N 48°30' W 122°34'0 0.0
2017-Nov-24 17:30N 48°30' W 122°34'0 0.1
2017-Nov-24 17:00N 48°30' W 122°34'1 2.5
2017-Nov-24 16:26N 48°32' W 122°35'3 6.6
2017-Nov-24 16:00N 48°31' W 122°40'4 7.6
2017-Nov-24 15:30N 48°32' W 122°45'0 0.8
2017-Nov-24 15:00N 48°32' W 122°45'4 7.4
2017-Nov-24 14:30N 48°29' W 122°44'4 8.7
2017-Nov-24 14:00N 48°24' W 122°44'5 8.2
2017-Nov-24 13:27N 48°20' W 122°45'  
Track history (hours):
 
Tides and Currents Weather Stations Pressure Air Temp Water Temp Dewpoint Dewpoint Depression Visibility Wind Speed Wind Dir Waves Ship Positions

Millennium Star

Owner: Harley Marine Services, INC, SEATTLE, WA. More information available from US FCC via Universal Licensing System and Coast Guard Vessel Documentation Center.

Last reported at 2017-Dec-04 10:28 UTC. Time now 2017-Dec-12 15:51 UTC.
Position N 47°35' W 122°21'.
Warning: this ship's position is 8 days out of date.

Length 30 m; draft 4 m.

Type: Tug. MMSI: 366971980.

Date/timePositionNaut miles runAvg speedWind from/ knotsBaromVisibWave heightAir tempDewpointWater temp
2017-Dec-04 10:28N 47°35' W 122°21'0 0.9
2017-Dec-04 09:59N 47°34' W 122°21'0 0.0
2017-Dec-04 09:29N 47°34' W 122°21'0 0.0
2017-Dec-04 08:59N 47°34' W 122°21'0 0.0
2017-Dec-04 08:29N 47°34' W 122°21'0 0.0
2017-Dec-04 08:00N 47°34' W 122°21'0 0.0
2017-Dec-04 07:29N 47°34' W 122°21'0 0.0
2017-Dec-04 07:00N 47°34' W 122°21'0 0.0
2017-Dec-04 06:29N 47°34' W 122°21'0 0.0
2017-Dec-04 06:00N 47°34' W 122°21'0 0.0
2017-Dec-04 05:29N 47°34' W 122°21'0 0.0
2017-Dec-04 05:00N 47°34' W 122°21'0 0.0
2017-Dec-04 04:30N 47°34' W 122°21'0 0.0
2017-Dec-04 04:00N 47°34' W 122°21'0 0.0
2017-Dec-04 03:30N 47°34' W 122°21'0 0.0
2017-Dec-04 03:00N 47°34' W 122°21'0 0.0
2017-Dec-04 02:30N 47°34' W 122°21'0 0.0
2017-Dec-04 01:59N 47°34' W 122°21'0 0.0
2017-Dec-04 01:30N 47°34' W 122°21'3 5.5
2017-Dec-04 01:00N 47°36' W 122°24'510.1
2017-Dec-04 00:30N 47°31' W 122°25'510.8
2017-Dec-04 00:00N 47°25' W 122°23'5 9.1
2017-Dec-03 23:30N 47°21' W 122°24'4 1.0
2017-Dec-03 19:48N 47°17' W 122°25'0 0.4
2017-Dec-03 19:00N 47°17' W 122°25'2 4.7
2017-Dec-03 18:31N 47°18' W 122°28'4 8.4
2017-Dec-03 18:00N 47°22' W 122°24'3 6.8
2017-Dec-03 17:31N 47°25' W 122°24'4 8.7
2017-Dec-03 17:01N 47°29' W 122°26'4 8.8
2017-Dec-03 16:31N 47°34' W 122°27'4 7.8
2017-Dec-03 16:01N 47°36' W 122°22'1 1.1
2017-Dec-03 15:28N 47°36' W 122°21'1 2.3
2017-Dec-03 15:00N 47°34' W 122°21'0 0.0
2017-Dec-03 14:30N 47°34' W 122°21'0 0.0
2017-Dec-03 14:00N 47°34' W 122°21'0 0.0
2017-Dec-03 13:30N 47°34' W 122°21'0 0.0
2017-Dec-03 13:00N 47°34' W 122°21'0 0.0
2017-Dec-03 12:30N 47°34' W 122°21'0 0.0
2017-Dec-03 12:00N 47°34' W 122°21'0 0.0
2017-Dec-03 11:30N 47°34' W 122°21'0 0.0
2017-Dec-03 10:57N 47°34' W 122°21'0 0.0
2017-Dec-03 10:30N 47°34' W 122°21'0 0.0
2017-Dec-03 10:00N 47°34' W 122°21'0 0.0
2017-Dec-03 09:30N 47°34' W 122°21'0 0.0
2017-Dec-03 09:00N 47°34' W 122°21'0 0.0
2017-Dec-03 08:30N 47°34' W 122°21'0 0.0
2017-Dec-03 08:00N 47°34' W 122°21'0 0.0
2017-Dec-03 07:29N 47°34' W 122°21'0 0.0
2017-Dec-03 07:00N 47°34' W 122°21'0 0.0
2017-Dec-03 06:30N 47°34' W 122°21'0 0.0
2017-Dec-03 06:00N 47°34' W 122°21'0 0.0
2017-Dec-03 05:30N 47°34' W 122°21'0 0.0
2017-Dec-03 05:00N 47°34' W 122°21'0 0.0
2017-Dec-03 04:30N 47°34' W 122°21'0 0.0
2017-Dec-03 04:00N 47°34' W 122°21'0 0.0
2017-Dec-03 03:30N 47°34' W 122°21'0 0.1
2017-Dec-03 03:00N 47°34' W 122°21'0 0.0
2017-Dec-03 02:30N 47°34' W 122°21'0 0.0
2017-Dec-03 01:57N 47°34' W 122°21'0 0.0
2017-Dec-03 01:27N 47°34' W 122°21'0 0.1
2017-Dec-03 00:57N 47°34' W 122°21'0 0.0
2017-Dec-03 00:30N 47°34' W 122°21'0 0.0
2017-Dec-03 00:01N 47°34' W 122°21'0 0.1
2017-Dec-02 23:30N 47°34' W 122°21'0 0.0
2017-Dec-02 23:00N 47°34' W 122°21'0 0.0
2017-Dec-02 22:30N 47°34' W 122°21'0 0.1
2017-Dec-02 21:57N 47°34' W 122°21'0 0.0
2017-Dec-02 21:30N 47°34' W 122°21'0 0.0
2017-Dec-02 21:00N 47°34' W 122°21'0 0.1
2017-Dec-02 20:30N 47°34' W 122°21'0 0.0
2017-Dec-02 20:00N 47°34' W 122°21'0 0.9
2017-Dec-02 19:30N 47°35' W 122°21'0 0.4
2017-Dec-02 19:00N 47°35' W 122°21'2 3.5
2017-Dec-02 18:30N 47°37' W 122°22'2 4.4
2017-Dec-02 17:59N 47°34' W 122°21'0 0.0
2017-Dec-02 17:29N 47°34' W 122°21'0 0.0
2017-Dec-02 16:59N 47°34' W 122°21'0 0.0
2017-Dec-02 16:30N 47°34' W 122°21'0 0.0
2017-Dec-02 15:59N 47°34' W 122°21'0 0.0
2017-Dec-02 15:29N 47°34' W 122°21'0 0.0
2017-Dec-02 14:58N 47°34' W 122°21'0 0.0
2017-Dec-02 14:29N 47°34' W 122°21'0 0.0
2017-Dec-02 13:58N 47°34' W 122°21'0 0.0
2017-Dec-02 13:29N 47°34' W 122°21'0 0.0
2017-Dec-02 12:59N 47°34' W 122°21'0 0.0
2017-Dec-02 12:30N 47°34' W 122°21'0 0.0
2017-Dec-02 11:56N 47°34' W 122°21'0 0.0
2017-Dec-02 11:30N 47°34' W 122°21'0 0.0
2017-Dec-02 10:59N 47°34' W 122°21'0 0.0
2017-Dec-02 10:29N 47°34' W 122°21'0 0.0
2017-Dec-02 09:59N 47°34' W 122°21'0 0.0
2017-Dec-02 09:28N 47°34' W 122°21'0 0.0
2017-Dec-02 08:59N 47°34' W 122°21'0 0.0
2017-Dec-02 08:29N 47°34' W 122°21'0 0.0
2017-Dec-02 07:59N 47°34' W 122°21'0 0.0
2017-Dec-02 07:29N 47°34' W 122°21'0 0.0
2017-Dec-02 06:59N 47°34' W 122°21'0 0.0
2017-Dec-02 06:29N 47°34' W 122°21'0 0.0
2017-Dec-02 05:59N 47°34' W 122°21'0 0.0
2017-Dec-02 05:28N 47°34' W 122°21'0 0.0
2017-Dec-02 04:59N 47°34' W 122°21'0 0.0
2017-Dec-02 04:28N 47°34' W 122°21'0 0.0
2017-Dec-02 03:59N 47°34' W 122°21'0 0.0
2017-Dec-02 03:29N 47°34' W 122°21'0 0.0
2017-Dec-02 02:59N 47°34' W 122°21'0 0.0
2017-Dec-02 02:25N 47°34' W 122°21'0 0.0
2017-Dec-02 01:56N 47°34' W 122°21'1 2.5
2017-Dec-02 01:30N 47°35' W 122°21'0 0.2
2017-Dec-02 00:59N 47°35' W 122°21'1 2.0
2017-Dec-02 00:30N 47°34' W 122°21'0 0.0
2017-Dec-02 00:00N 47°34' W 122°21'0 0.0
2017-Dec-01 23:30N 47°34' W 122°21'0 0.0
2017-Dec-01 23:00N 47°34' W 122°21'0 0.0
2017-Dec-01 22:30N 47°34' W 122°21'0 0.0
2017-Dec-01 21:59N 47°34' W 122°21'0 0.0
2017-Dec-01 21:30N 47°34' W 122°21'0 0.0
2017-Dec-01 20:59N 47°34' W 122°21'0 0.0
2017-Dec-01 20:29N 47°34' W 122°21'0 0.0
2017-Dec-01 20:00N 47°34' W 122°21'0 0.0
2017-Dec-01 19:30N 47°34' W 122°21'0 0.0
2017-Dec-01 19:00N 47°34' W 122°21'0 0.0
2017-Dec-01 18:30N 47°34' W 122°21'0 0.0
2017-Dec-01 18:00N 47°34' W 122°21'0 0.0
2017-Dec-01 17:30N 47°34' W 122°21'0 0.0
2017-Dec-01 16:59N 47°34' W 122°21'0 0.0
2017-Dec-01 16:30N 47°34' W 122°21'0 0.0
2017-Dec-01 16:00N 47°34' W 122°21'0 0.0
2017-Dec-01 15:30N 47°34' W 122°21'0 0.0
2017-Dec-01 14:59N 47°34' W 122°21'3 6.0
2017-Dec-01 14:31N 47°36' W 122°25'611.0
2017-Dec-01 14:00N 47°30' W 122°25'611.8
2017-Dec-01 13:30N 47°24' W 122°22'510.5
2017-Dec-01 13:00N 47°20' W 122°25'3 5.3
2017-Dec-01 12:25N 47°17' W 122°25'1 3.5
2017-Dec-01 12:00N 47°16' W 122°23'0 0.3
2017-Dec-01 11:28N 47°16' W 122°23'2 0.2
2017-Dec-01 00:57N 47°18' W 122°25'3 7.2
2017-Dec-01 00:30N 47°21' W 122°25'5 9.2
2017-Dec-01 00:00N 47°25' W 122°23'510.7
2017-Nov-30 23:30N 47°30' W 122°26'5 9.6
2017-Nov-30 23:00N 47°35' W 122°25'3 5.8
2017-Nov-30 22:28N 47°34' W 122°21'0 0.0
2017-Nov-30 21:58N 47°34' W 122°21'0 0.0
2017-Nov-30 21:28N 47°34' W 122°21'0 0.1
2017-Nov-30 20:59N 47°34' W 122°21'0 0.1
2017-Nov-30 20:28N 47°34' W 122°21'0 0.0
2017-Nov-30 19:58N 47°34' W 122°21'0 0.2
2017-Nov-30 19:25N 47°34' W 122°21'0 0.0
2017-Nov-30 18:59N 47°34' W 122°21'1 2.1
2017-Nov-30 18:30N 47°35' W 122°21'1 1.6
2017-Nov-30 18:00N 47°36' W 122°22'3 5.6
2017-Nov-30 17:30N 47°35' W 122°26'4 8.9
2017-Nov-30 17:00N 47°31' W 122°25'4 8.8
2017-Nov-30 16:30N 47°26' W 122°23'4 8.0
2017-Nov-30 16:00N 47°22' W 122°22'4 9.0
2017-Nov-30 15:30N 47°19' W 122°26'2 4.8
2017-Nov-30 15:00N 47°17' W 122°26'3 4.3
2017-Nov-30 14:23N 47°15' W 122°23'0 0.0
2017-Nov-30 13:44N 47°15' W 122°23'0 0.0
2017-Nov-30 13:29N 47°15' W 122°23'0 0.0
2017-Nov-30 12:59N 47°15' W 122°23'0 0.0
2017-Nov-30 12:05N 47°15' W 122°23'0 0.0
2017-Nov-30 11:47N 47°15' W 122°23'0 0.0
2017-Nov-30 11:29N 47°15' W 122°23'0 0.0
2017-Nov-30 10:59N 47°15' W 122°23'0 0.0
2017-Nov-30 08:47N 47°15' W 122°23'0 0.0
2017-Nov-30 08:20N 47°15' W 122°23'0 0.0
2017-Nov-30 07:59N 47°15' W 122°23'0 0.0
2017-Nov-30 07:29N 47°15' W 122°23'0 0.0
2017-Nov-30 06:59N 47°15' W 122°23'0 0.0
2017-Nov-30 06:29N 47°15' W 122°23'0 0.1
2017-Nov-30 05:59N 47°15' W 122°23'0 0.0
2017-Nov-30 04:08N 47°15' W 122°23'0 0.0
2017-Nov-30 03:59N 47°15' W 122°23'0 0.5
2017-Nov-30 03:11N 47°16' W 122°23'1 4.3
2017-Nov-30 02:50N 47°17' W 122°25'1 0.2
2017-Nov-30 00:15N 47°16' W 122°25'0 0.0
2017-Nov-29 23:51N 47°16' W 122°25'0 0.0
2017-Nov-29 23:27N 47°16' W 122°25'0 0.0
2017-Nov-29 21:39N 47°16' W 122°25'0 0.0
2017-Nov-29 18:23N 47°16' W 122°25'0 0.0
2017-Nov-29 17:44N 47°16' W 122°25'0 0.0
2017-Nov-29 17:26N 47°16' W 122°25'0 0.0
2017-Nov-29 16:38N 47°16' W 122°25'0 0.0
2017-Nov-29 16:20N 47°16' W 122°25'0 0.0
2017-Nov-29 13:32N 47°16' W 122°25'0 0.0
2017-Nov-29 13:17N 47°16' W 122°25'0 0.0
2017-Nov-29 12:59N 47°16' W 122°25'0 0.0
2017-Nov-29 12:23N 47°16' W 122°25'0 0.0
2017-Nov-29 11:47N 47°16' W 122°25'0 0.0
2017-Nov-29 11:29N 47°16' W 122°25'0 0.0
2017-Nov-29 10:59N 47°16' W 122°25'0 0.0
2017-Nov-29 10:29N 47°16' W 122°25'0 0.0
2017-Nov-29 09:59N 47°16' W 122°25'0 0.0
2017-Nov-29 09:29N 47°16' W 122°25'0 0.0
2017-Nov-29 08:26N 47°16' W 122°25'0 0.0
2017-Nov-29 06:53N 47°16' W 122°25'0 0.0
2017-Nov-29 06:17N 47°16' W 122°25'0 0.0
2017-Nov-29 05:53N 47°16' W 122°25'0 0.0
2017-Nov-29 05:08N 47°16' W 122°25'1 3.9
2017-Nov-29 05:00N 47°17' W 122°25'1 1.2
2017-Nov-29 04:20N 47°16' W 122°24'1 4.0
2017-Nov-29 04:00N 47°17' W 122°26'1 1.0
2017-Nov-29 02:54N 47°16' W 122°25'1 1.6
2017-Nov-29 02:30N 47°17' W 122°25'0 0.5
2017-Nov-29 01:59N 47°17' W 122°26'0 0.2
2017-Nov-29 01:29N 47°17' W 122°25'0 0.1
2017-Nov-29 00:59N 47°17' W 122°25'0 0.6
2017-Nov-29 00:30N 47°17' W 122°25'1 2.7
2017-Nov-29 00:00N 47°17' W 122°23'0 0.0
2017-Nov-28 23:30N 47°17' W 122°23'0 0.0
2017-Nov-28 22:57N 47°17' W 122°23'0 0.0
2017-Nov-28 21:48N 47°17' W 122°23'0 0.0
2017-Nov-28 21:21N 47°17' W 122°23'0 0.0
2017-Nov-28 21:00N 47°17' W 122°23'0 0.0
2017-Nov-28 20:30N 47°17' W 122°23'0 0.0
2017-Nov-28 20:00N 47°17' W 122°23'0 0.0
2017-Nov-28 19:24N 47°17' W 122°23'0 0.0
2017-Nov-28 19:00N 47°17' W 122°23'0 0.0
2017-Nov-28 18:24N 47°17' W 122°23'0 0.0
2017-Nov-28 17:51N 47°17' W 122°23'0 0.0
2017-Nov-28 17:29N 47°17' W 122°23'0 0.0
2017-Nov-28 16:59N 47°17' W 122°23'0 0.0
2017-Nov-28 16:29N 47°17' W 122°23'0 0.0
2017-Nov-28 15:59N 47°17' W 122°23'0 0.0
2017-Nov-28 14:59N 47°17' W 122°23'0 0.0
2017-Nov-28 14:23N 47°17' W 122°23'0 0.0
2017-Nov-28 13:59N 47°17' W 122°23'0 0.0
2017-Nov-28 13:29N 47°17' W 122°23'1 2.6
2017-Nov-28 13:00N 47°17' W 122°25'3 6.2
2017-Nov-28 12:30N 47°19' W 122°29'4 7.6
2017-Nov-28 12:00N 47°22' W 122°32'4 7.9
2017-Nov-28 11:30N 47°26' W 122°32'4 7.4
2017-Nov-28 11:00N 47°29' W 122°30'4 7.7
2017-Nov-28 10:30N 47°33' W 122°28'4 7.8
2017-Nov-28 10:00N 47°36' W 122°24'2 4.9
2017-Nov-28 09:31N 47°35' W 122°21'1 2.0
2017-Nov-28 09:00N 47°34' W 122°21'0 0.0
2017-Nov-28 08:29N 47°34' W 122°21'0 0.0
2017-Nov-28 07:59N 47°34' W 122°21'0 0.0
2017-Nov-28 07:29N 47°34' W 122°21'0 0.0
2017-Nov-28 06:59N 47°34' W 122°21'0 0.0
2017-Nov-28 06:29N 47°34' W 122°21'0 0.0
2017-Nov-28 05:59N 47°34' W 122°21'0 0.0
2017-Nov-28 05:29N 47°34' W 122°21'0 0.0
2017-Nov-28 04:29N 47°34' W 122°21'0 0.0
2017-Nov-28 03:59N 47°34' W 122°21'0 0.0
2017-Nov-28 03:29N 47°34' W 122°21'0 0.0
2017-Nov-28 02:57N 47°34' W 122°21'0 0.0
2017-Nov-28 02:29N 47°34' W 122°21'0 0.0
2017-Nov-28 01:59N 47°34' W 122°21'0 0.0
2017-Nov-28 01:29N 47°34' W 122°21'0 0.0
2017-Nov-28 00:59N 47°34' W 122°21'0 0.0
2017-Nov-28 00:29N 47°34' W 122°21'0 0.0
2017-Nov-27 23:59N 47°34' W 122°21'0 0.0
2017-Nov-27 23:26N 47°34' W 122°21'0 0.0
2017-Nov-27 22:59N 47°34' W 122°21'0 0.0
2017-Nov-27 22:29N 47°34' W 122°21'0 0.0
2017-Nov-27 21:56N 47°34' W 122°21'0 0.0
2017-Nov-27 21:30N 47°34' W 122°21'0 0.0
2017-Nov-27 20:59N 47°34' W 122°21'0 0.0
2017-Nov-27 20:29N 47°34' W 122°21'0 0.0
2017-Nov-27 19:59N 47°34' W 122°21'0 0.0
2017-Nov-27 19:30N 47°34' W 122°21'0 0.0
2017-Nov-27 19:00N 47°34' W 122°21'0 0.0
2017-Nov-27 18:30N 47°34' W 122°21'0 0.1
2017-Nov-27 17:59N 47°34' W 122°21'0 0.0
2017-Nov-27 17:29N 47°34' W 122°21'1 1.8
2017-Nov-27 16:57N 47°35' W 122°21'1 1.8
2017-Nov-27 16:24N 47°34' W 122°21'0 0.0
2017-Nov-27 15:50N 47°34' W 122°21'0 0.0
2017-Nov-27 15:29N 47°34' W 122°21'0 0.0
2017-Nov-27 14:53N 47°34' W 122°21'0 0.0
2017-Nov-27 14:29N 47°34' W 122°21'0 0.0
2017-Nov-27 12:50N 47°34' W 122°21'0 0.0
2017-Nov-27 12:17N 47°34' W 122°21'0 0.0
2017-Nov-27 11:59N 47°34' W 122°21'0 0.0
2017-Nov-27 11:22N 47°34' W 122°21'0 0.0
2017-Nov-27 11:00N 47°34' W 122°21'0 0.0
2017-Nov-27 10:30N 47°34' W 122°21'0 0.0
2017-Nov-27 09:57N 47°34' W 122°21'0 0.0
2017-Nov-27 09:30N 47°34' W 122°21'0 0.0
2017-Nov-27 09:00N 47°34' W 122°21'0 0.0
2017-Nov-27 08:30N 47°34' W 122°21'0 0.0
2017-Nov-27 07:59N 47°34' W 122°21'0 0.0
2017-Nov-27 07:30N 47°34' W 122°21'0 0.0
2017-Nov-27 06:59N 47°34' W 122°21'0 0.0
2017-Nov-27 06:29N 47°34' W 122°21'0 0.0
2017-Nov-27 06:00N 47°34' W 122°21'0 0.0
2017-Nov-27 05:30N 47°34' W 122°21'0 0.0
2017-Nov-27 05:00N 47°34' W 122°21'0 0.0
2017-Nov-27 04:30N 47°34' W 122°21'0 0.0
2017-Nov-27 04:00N 47°34' W 122°21'0 0.0
2017-Nov-27 03:26N 47°34' W 122°21'0 0.0
2017-Nov-27 03:00N 47°34' W 122°21'0 0.0
2017-Nov-27 02:30N 47°34' W 122°21'0 0.0
2017-Nov-27 01:59N 47°34' W 122°21'0 0.0
2017-Nov-27 01:29N 47°34' W 122°21'0 0.0
2017-Nov-27 01:00N 47°34' W 122°21'0 0.0
2017-Nov-27 00:30N 47°34' W 122°21'0 0.2
2017-Nov-26 23:58N 47°34' W 122°21'0 0.2
2017-Nov-26 23:26N 47°34' W 122°21'0 0.0
2017-Nov-26 22:58N 47°34' W 122°21'1 2.3
2017-Nov-26 22:30N 47°36' W 122°21'4 7.5
2017-Nov-26 22:00N 47°38' W 122°25'3 6.8
2017-Nov-26 21:30N 47°41' W 122°27'4 7.8
2017-Nov-26 21:00N 47°45' W 122°25'2 4.5
2017-Nov-26 20:30N 47°47' W 122°24'0 0.0
2017-Nov-26 20:00N 47°47' W 122°24'0 0.0
2017-Nov-26 19:30N 47°47' W 122°24'0 0.0
2017-Nov-26 19:00N 47°47' W 122°24'0 0.0
2017-Nov-26 18:27N 47°47' W 122°24'0 0.0
2017-Nov-26 18:00N 47°47' W 122°24'0 0.0
2017-Nov-26 17:30N 47°47' W 122°24'0 0.0
2017-Nov-26 17:00N 47°47' W 122°24'0 0.0
2017-Nov-26 16:30N 47°47' W 122°24'0 0.0
2017-Nov-26 16:00N 47°47' W 122°24'0 0.0
2017-Nov-26 15:30N 47°47' W 122°24'0 0.0
2017-Nov-26 15:00N 47°47' W 122°24'0 0.0
2017-Nov-26 14:30N 47°47' W 122°24'0 0.0
2017-Nov-26 14:00N 47°47' W 122°24'0 0.0
2017-Nov-26 13:30N 47°47' W 122°24'0 0.0
2017-Nov-26 13:00N 47°47' W 122°24'0 0.0
2017-Nov-26 12:27N 47°47' W 122°24'0 0.0
2017-Nov-26 12:00N 47°47' W 122°24'0 0.0
2017-Nov-26 11:30N 47°47' W 122°24'0 0.0
2017-Nov-26 11:00N 47°47' W 122°24'0 0.0
2017-Nov-26 10:30N 47°47' W 122°24'0 0.0
2017-Nov-26 09:57N 47°47' W 122°24'0 0.0
2017-Nov-26 09:30N 47°47' W 122°24'0 0.0
2017-Nov-26 08:57N 47°47' W 122°24'0 0.0
2017-Nov-26 08:27N 47°47' W 122°24'0 0.0
2017-Nov-26 08:00N 47°47' W 122°24'0 0.0
2017-Nov-26 07:30N 47°47' W 122°24'0 0.0
2017-Nov-26 07:00N 47°47' W 122°24'0 0.0
2017-Nov-26 06:30N 47°47' W 122°24'0 0.0
2017-Nov-26 06:00N 47°47' W 122°24'0 0.0
2017-Nov-26 05:30N 47°47' W 122°24'0 0.0
2017-Nov-26 04:57N 47°47' W 122°24'0 0.0
2017-Nov-26 04:30N 47°47' W 122°24'0 0.0
2017-Nov-26 04:00N 47°47' W 122°24'1 2.4
2017-Nov-26 03:30N 47°46' W 122°25'4 7.0
2017-Nov-26 03:00N 47°42' W 122°26'3 6.6
2017-Nov-26 02:30N 47°39' W 122°27'3 6.4
2017-Nov-26 02:01N 47°37' W 122°23'3 5.8
2017-Nov-26 01:30N 47°35' W 122°21'0 0.3
2017-Nov-26 01:00N 47°34' W 122°21'1 2.1
2017-Nov-26 00:30N 47°35' W 122°21'1 1.9
2017-Nov-26 00:00N 47°34' W 122°21'0 0.0
2017-Nov-25 23:30N 47°34' W 122°21'0 0.0
2017-Nov-25 23:00N 47°34' W 122°21'0 0.0
2017-Nov-25 22:30N 47°34' W 122°21'0 0.0
2017-Nov-25 22:00N 47°34' W 122°21'0 0.0
2017-Nov-25 21:30N 47°34' W 122°21'0 0.0
2017-Nov-25 21:00N 47°34' W 122°21'0 0.0
2017-Nov-25 20:30N 47°34' W 122°21'0 0.0
2017-Nov-25 20:00N 47°34' W 122°21'0 0.0
2017-Nov-25 19:30N 47°34' W 122°21'0 0.0
2017-Nov-25 19:00N 47°34' W 122°21'0 0.2
2017-Nov-25 18:30N 47°34' W 122°21'0 0.2
2017-Nov-25 18:00N 47°34' W 122°21'1 2.2
2017-Nov-25 17:30N 47°36' W 122°21'1 2.4
2017-Nov-25 17:00N 47°36' W 122°22'3 5.8
2017-Nov-25 16:30N 47°38' W 122°26'3 6.8
2017-Nov-25 16:00N 47°41' W 122°28'4 7.2
2017-Nov-25 15:30N 47°44' W 122°27'4 7.6
2017-Nov-25 15:00N 47°48' W 122°28'4 8.0
2017-Nov-25 14:30N 47°52' W 122°29'4 7.8
2017-Nov-25 14:00N 47°56' W 122°31'5 8.7
2017-Nov-25 13:27N 47°59' W 122°37'13 8.3
2017-Nov-25 11:56N 48°10' W 122°46'9 6.7
2017-Nov-25 10:39N 48°18' W 122°47'2 7.4
2017-Nov-25 10:22N 48°21' W 122°47'3 7.3
2017-Nov-25 10:00N 48°23' W 122°46'4 8.1
2017-Nov-25 09:30N 48°27' W 122°45'4 8.1
2017-Nov-25 09:00N 48°31' W 122°42'4 7.3
2017-Nov-25 08:30N 48°32' W 122°37'2 3.3
2017-Nov-25 07:56N 48°31' W 122°34'1 1.3
2017-Nov-25 07:30N 48°30' W 122°34'0 0.0
2017-Nov-25 07:00N 48°30' W 122°34'0 0.0
2017-Nov-25 06:30N 48°30' W 122°34'0 0.0
2017-Nov-25 06:00N 48°30' W 122°34'0 0.0
2017-Nov-25 05:30N 48°30' W 122°34'0 0.0
2017-Nov-25 05:00N 48°30' W 122°34'0 0.0
2017-Nov-25 04:24N 48°30' W 122°34'0 0.0
2017-Nov-25 04:00N 48°30' W 122°34'0 0.0
2017-Nov-25 03:30N 48°30' W 122°34'0 0.0
2017-Nov-25 03:00N 48°30' W 122°34'0 0.0
2017-Nov-25 02:30N 48°30' W 122°34'0 0.0
2017-Nov-25 02:00N 48°30' W 122°34'0 0.0
2017-Nov-25 01:30N 48°30' W 122°34'0 0.0
2017-Nov-25 01:00N 48°30' W 122°34'0 0.0
2017-Nov-25 00:30N 48°30' W 122°34'0 0.0
2017-Nov-25 00:00N 48°30' W 122°34'0 0.0
2017-Nov-24 23:30N 48°30' W 122°34'0 0.0
2017-Nov-24 23:00N 48°30' W 122°34'0 0.0
2017-Nov-24 22:30N 48°30' W 122°34'0 0.0
2017-Nov-24 21:54N 48°30' W 122°34'0 0.0
2017-Nov-24 21:30N 48°30' W 122°34'0 0.0
2017-Nov-24 21:00N 48°30' W 122°34'0 0.0
2017-Nov-24 20:18N 48°30' W 122°34'0 0.0
2017-Nov-24 20:00N 48°30' W 122°34'0 0.0
2017-Nov-24 19:30N 48°30' W 122°34'0 0.0
2017-Nov-24 19:00N 48°30' W 122°34'0 0.0
2017-Nov-24 18:30N 48°30' W 122°34'0 0.0
2017-Nov-24 18:00N 48°30' W 122°34'0 0.0
2017-Nov-24 17:30N 48°30' W 122°34'0 0.1
2017-Nov-24 17:00N 48°30' W 122°34'1 2.5
2017-Nov-24 16:26N 48°32' W 122°35'3 6.6
2017-Nov-24 16:00N 48°31' W 122°40'4 7.6
2017-Nov-24 15:30N 48°32' W 122°45'0 0.8
2017-Nov-24 15:00N 48°32' W 122°45'4 7.4
2017-Nov-24 14:30N 48°29' W 122°44'4 8.7
2017-Nov-24 14:00N 48°24' W 122°44'5 8.2
2017-Nov-24 13:27N 48°20' W 122°45'  

Dump ship's entire track history